Time;durP1;ratioP1;P1;durP2;ratioP2;P2;SDS_P1;SDS_P2;PMS_P1;PMS_P2;Temp;Humidity;BMP_temperature;BMP_pressure;BME280_temperature;BME280_humidity;BME280_pressure;Samples;Min_cycle;Max_cycle;Signal;HPM_P1;HPM_P2
2024/03/14 00:02:37;;;;;;;17.95;11.77;;;23.70;51.20;;;;;;6174305;28;83032;-59
2024/03/14 00:05:37;;;;;;;15.88;11.02;;;23.60;51.10;;;;;;6172727;28;84893;-59
2024/03/14 00:08:38;;;;;;;19.10;11.27;;;23.70;51.20;;;;;;6172211;28;83409;-58
2024/03/14 00:11:38;;;;;;;16.80;10.43;;;23.70;51.80;;;;;;6172166;28;82984;-48
2024/03/14 00:14:44;;;;;;;15.70;11.02;;;23.70;51.20;;;;;;6171722;28;82809;-51
2024/03/14 00:17:45;;;;;;;16.02;11.18;;;23.70;51.40;;;;;;6171882;28;83109;-50
2024/03/14 00:20:45;;;;;;;15.38;11.30;;;23.70;51.40;;;;;;6171985;28;83271;-52
2024/03/14 00:23:46;;;;;;;15.50;9.88;;;23.70;51.50;;;;;;6178714;28;83412;-49
2024/03/14 00:26:46;;;;;;;18.70;11.85;;;23.60;51.40;;;;;;6175974;28;85011;-53
2024/03/14 00:29:47;;;;;;;18.83;10.90;;;23.70;51.30;;;;;;6171916;28;84158;-60
2024/03/14 00:32:49;;;;;;;16.85;10.70;;;23.70;51.30;;;;;;6174126;28;83573;-59
2024/03/14 00:35:49;;;;;;;14.73;9.90;;;23.70;51.20;;;;;;6176025;28;83478;-60
2024/03/14 00:38:50;;;;;;;15.65;10.90;;;23.70;51.20;;;;;;6177094;28;83018;-60
2024/03/14 00:41:51;;;;;;;17.15;10.48;;;23.70;51.20;;;;;;6182566;28;83067;-59
2024/03/14 00:44:52;;;;;;;15.38;10.85;;;23.60;51.00;;;;;;6172549;28;84373;-60
2024/03/14 00:47:55;;;;;;;14.43;10.57;;;23.60;51.10;;;;;;6171611;28;82850;-61
2024/03/14 00:50:56;;;;;;;15.88;11.07;;;23.60;50.90;;;;;;6171747;28;83077;-61
2024/03/14 00:53:56;;;;;;;14.75;10.45;;;23.60;51.00;;;;;;6172277;28;84320;-61
2024/03/14 00:56:57;;;;;;;16.30;11.05;;;23.60;50.90;;;;;;6171642;28;84869;-61
2024/03/14 00:59:57;;;;;;;16.33;11.07;;;23.60;50.90;;;;;;6171998;28;83402;-61
2024/03/14 01:02:58;;;;;;;14.40;10.95;;;23.60;50.80;;;;;;6171662;28;84048;-60
2024/03/14 01:05:58;;;;;;;16.65;9.73;;;23.60;50.80;;;;;;6146441;28;498431;-53
2024/03/14 01:08:59;;;;;;;14.68;10.30;;;23.60;50.90;;;;;;6156130;28;82983;-53
2024/03/14 01:12:00;;;;;;;16.27;10.35;;;23.60;50.90;;;;;;6173667;28;83528;-53
2024/03/14 01:15:00;;;;;;;13.43;9.35;;;23.60;50.90;;;;;;6173063;28;82936;-49
2024/03/14 01:18:01;;;;;;;14.68;11.13;;;23.60;50.80;;;;;;6176136;28;82885;-55
2024/03/14 01:21:02;;;;;;;14.80;10.75;;;23.60;50.70;;;;;;6173538;28;83019;-50
2024/03/14 01:24:03;;;;;;;17.15;10.43;;;23.60;50.70;;;;;;6172772;28;83655;-60
2024/03/14 01:27:04;;;;;;;15.38;10.23;;;23.50;50.60;;;;;;6172559;28;83224;-59
2024/03/14 01:30:10;;;;;;;13.77;9.90;;;23.60;50.70;;;;;;6172305;28;83958;-60
2024/03/14 01:33:10;;;;;;;14.65;9.80;;;23.60;50.60;;;;;;6175456;28;83230;-60
2024/03/14 01:36:11;;;;;;;9.77;7.65;;;23.50;50.70;;;;;;6175181;28;82651;-60
2024/03/14 01:39:13;;;;;;;14.23;9.90;;;23.50;50.90;;;;;;6175707;28;80579;-59
2024/03/14 01:42:14;;;;;;;12.82;9.63;;;23.50;50.80;;;;;;6175216;28;80953;-68
2024/03/14 01:45:15;;;;;;;14.85;9.80;;;23.50;50.70;;;;;;6175700;28;80793;-69
2024/03/14 01:48:15;;;;;;;13.27;9.20;;;23.50;50.70;;;;;;6178864;28;80565;-69
2024/03/14 01:51:16;;;;;;;14.65;9.57;;;23.50;51.00;;;;;;6180293;28;80845;-68
2024/03/14 01:54:16;;;;;;;14.45;9.77;;;23.50;50.80;;;;;;6179974;28;87797;-68
2024/03/14 01:57:17;;;;;;;11.38;8.75;;;23.50;50.90;;;;;;6179994;28;80953;-70
2024/03/14 02:00:18;;;;;;;11.93;8.70;;;23.50;51.00;;;;;;6178425;28;80355;-57
2024/03/14 02:03:19;;;;;;;15.48;10.30;;;23.50;51.10;;;;;;6179710;28;80546;-58
2024/03/14 02:06:19;;;;;;;13.30;10.27;;;23.50;50.60;;;;;;6175602;28;82964;-57
2024/03/14 02:09:22;;;;;;;11.82;8.07;;;23.50;50.80;;;;;;6175853;28;84376;-57
2024/03/14 02:12:23;;;;;;;12.93;9.35;;;23.50;51.10;;;;;;6178159;28;83010;-57
2024/03/14 02:15:23;;;;;;;9.57;7.07;;;23.50;50.90;;;;;;6179534;28;80552;-58
2024/03/14 02:18:24;;;;;;;10.13;7.07;;;23.50;51.30;;;;;;6179088;28;82530;-49
2024/03/14 02:21:24;;;;;;;9.25;6.53;;;23.50;51.00;;;;;;6177635;28;81227;-50
2024/03/14 02:24:25;;;;;;;11.88;8.27;;;23.50;51.20;;;;;;6178866;28;80860;-49
2024/03/14 02:27:26;;;;;;;12.77;8.57;;;23.50;50.70;;;;;;6179161;28;81071;-53
2024/03/14 02:30:27;;;;;;;13.38;9.18;;;23.60;50.60;;;;;;6178738;28;80779;-51
2024/03/14 02:33:27;;;;;;;13.63;9.10;;;23.50;50.40;;;;;;6176516;28;81513;-52
2024/03/14 02:36:28;;;;;;;13.32;9.35;;;23.50;50.60;;;;;;6178359;28;80427;-59
2024/03/14 02:39:31;;;;;;;14.38;9.45;;;23.50;50.60;;;;;;6178740;28;80407;-68
2024/03/14 02:42:32;;;;;;;11.50;8.57;;;23.50;50.60;;;;;;6179125;28;81806;-72
2024/03/14 02:45:34;;;;;;;12.27;9.15;;;23.50;50.70;;;;;;6180989;28;80769;-73
2024/03/14 02:48:36;;;;;;;15.45;9.50;;;23.50;50.40;;;;;;6178688;28;80938;-69
2024/03/14 02:51:40;;;;;;;13.00;9.00;;;23.50;50.30;;;;;;6179905;28;81746;-67
2024/03/14 02:54:40;;;;;;;13.02;9.77;;;23.50;50.20;;;;;;6179248;28;80014;-68
2024/03/14 02:57:41;;;;;;;13.90;8.50;;;23.50;50.20;;;;;;6175459;28;85113;-60
2024/03/14 03:00:42;;;;;;;13.57;9.05;;;23.50;50.40;;;;;;6184046;28;81012;-59
2024/03/14 03:03:44;;;;;;;13.52;8.80;;;23.50;50.10;;;;;;6180525;28;80465;-58
2024/03/14 03:06:55;;;;;;;14.45;8.90;;;23.50;50.40;;;;;;6177577;28;80561;-58
2024/03/14 03:09:55;;;;;;;13.35;7.78;;;23.50;50.30;;;;;;6179059;28;80868;-59
2024/03/14 03:12:56;;;;;;;14.95;8.55;;;23.40;50.30;;;;;;6177997;28;80802;-59
2024/03/14 03:15:56;;;;;;;13.10;8.57;;;23.50;50.40;;;;;;6169831;28;80470;-61
2024/03/14 03:18:58;;;;;;;11.35;8.35;;;23.40;50.20;;;;;;6178462;28;80334;-61
2024/03/14 03:21:59;;;;;;;13.63;8.35;;;23.50;50.30;;;;;;6177638;28;81382;-60
2024/03/14 03:24:59;;;;;;;11.95;8.82;;;23.50;50.30;;;;;;6176428;28;81421;-60
2024/03/14 03:28:00;;;;;;;12.48;8.85;;;23.40;50.20;;;;;;6177231;28;80512;-59
2024/03/14 03:31:03;;;;;;;11.52;7.75;;;23.40;50.20;;;;;;6188106;28;80322;-59
2024/03/14 03:34:04;;;;;;;11.27;8.10;;;23.40;50.10;;;;;;6178015;28;80569;-60
2024/03/14 03:37:05;;;;;;;10.73;7.70;;;23.40;50.10;;;;;;6191597;28;80572;-60
2024/03/14 03:40:13;;;;;;;11.00;7.90;;;23.50;50.10;;;;;;6177710;28;80126;-60
2024/03/14 03:43:14;;;;;;;10.98;7.95;;;23.50;50.20;;;;;;6188870;28;80583;-60
2024/03/14 03:46:16;;;;;;;12.63;8.05;;;23.50;50.20;;;;;;6179981;28;80791;-60
2024/03/14 03:49:16;;;;;;;11.95;7.85;;;23.50;50.20;;;;;;6190109;28;87710;-59
2024/03/14 03:52:17;;;;;;;13.18;8.23;;;23.40;49.90;;;;;;6178455;28;80335;-59
2024/03/14 03:55:17;;;;;;;12.18;8.10;;;23.50;50.30;;;;;;6178651;28;80851;-59
2024/03/14 03:58:19;;;;;;;12.02;8.52;;;23.50;50.20;;;;;;6177994;28;80820;-59
2024/03/14 04:01:22;;;;;;;7.55;5.53;;;23.50;50.30;;;;;;6176880;28;80738;-59
2024/03/14 04:04:22;;;;;;;10.18;7.00;;;23.40;50.20;;;;;;6176167;28;81686;-59
2024/03/14 04:07:23;;;;;;;10.63;7.68;;;23.50;50.20;;;;;;6175206;28;80401;-60
2024/03/14 04:10:23;;;;;;;9.23;6.68;;;23.50;50.30;;;;;;6171702;28;80463;-54
2024/03/14 04:13:26;;;;;;;12.90;8.05;;;23.50;50.50;;;;;;6175559;28;81168;-51
2024/03/14 04:16:28;;;;;;;12.05;8.43;;;23.50;50.40;;;;;;6186918;28;81052;-51
2024/03/14 04:19:29;;;;;;;12.32;8.43;;;23.50;50.30;;;;;;6175040;28;80614;-55
2024/03/14 04:22:30;;;;;;;11.77;8.00;;;23.50;50.30;;;;;;6175907;28;80477;-52
2024/03/14 04:25:31;;;;;;;13.88;8.00;;;23.50;50.30;;;;;;6176528;28;81281;-52
2024/03/14 04:28:33;;;;;;;12.27;8.30;;;23.50;50.00;;;;;;6176633;28;81289;-54
2024/03/14 04:31:34;;;;;;;11.65;7.63;;;23.50;49.80;;;;;;6177443;28;80752;-58
2024/03/14 04:34:36;;;;;;;10.25;7.32;;;23.50;49.30;;;;;;6176915;28;80874;-56
2024/03/14 04:37:37;;;;;;;10.82;7.80;;;23.60;49.20;;;;;;6175065;28;80565;-58
2024/03/14 04:40:38;;;;;;;12.13;8.02;;;23.60;49.10;;;;;;6176117;28;81824;-59
2024/03/14 04:43:38;;;;;;;12.50;8.50;;;23.60;48.70;;;;;;6176134;28;80822;-56
2024/03/14 04:46:41;;;;;;;12.88;8.90;;;23.60;48.50;;;;;;6175513;28;81838;-52
2024/03/14 04:49:42;;;;;;;12.30;8.48;;;23.70;48.50;;;;;;6176065;28;85069;-51
2024/03/14 04:52:42;;;;;;;11.63;8.38;;;23.70;48.40;;;;;;6176266;28;80560;-51
2024/03/14 04:55:45;;;;;;;10.02;7.65;;;23.70;48.10;;;;;;6176715;28;80146;-47
2024/03/14 04:58:46;;;;;;;10.93;7.85;;;23.70;48.10;;;;;;6175664;28;80375;-50
2024/03/14 05:01:46;;;;;;;12.43;7.75;;;23.70;48.20;;;;;;6176441;28;80165;-48
2024/03/14 05:04:47;;;;;;;12.07;7.80;;;23.80;48.10;;;;;;6176396;28;81090;-57
2024/03/14 05:07:48;;;;;;;10.25;7.75;;;23.80;48.10;;;;;;6174584;28;81207;-58
2024/03/14 05:10:49;;;;;;;10.07;7.85;;;23.80;48.10;;;;;;6177156;28;80433;-58
2024/03/14 05:13:56;;;;;;;10.75;7.63;;;23.80;48.10;;;;;;6175873;28;80869;-56
2024/03/14 05:16:56;;;;;;;12.52;8.15;;;23.80;48.50;;;;;;6176755;28;80240;-58
2024/03/14 05:19:57;;;;;;;11.90;8.15;;;23.80;49.40;;;;;;6174694;28;80586;-56
2024/03/14 05:22:57;;;;;;;16.30;8.27;;;23.80;49.20;;;;;;6178171;28;80509;-55
2024/03/14 05:25:58;;;;;;;12.52;7.68;;;23.90;49.40;;;;;;6180121;28;80812;-58
2024/03/14 05:28:59;;;;;;;13.10;7.88;;;23.90;49.20;;;;;;6179866;28;80871;-58
2024/03/14 05:31:59;;;;;;;14.02;8.55;;;23.90;49.20;;;;;;6178822;28;80927;-56
2024/03/14 05:35:00;;;;;;;13.07;8.05;;;23.90;49.50;;;;;;6179463;28;80463;-59
2024/03/14 05:38:00;;;;;;;14.10;7.28;;;23.90;50.10;;;;;;6175628;28;80305;-57
2024/03/14 05:41:01;;;;;;;15.38;7.68;;;23.90;50.00;;;;;;6178909;28;81279;-53
2024/03/14 05:44:01;;;;;;;11.73;7.25;;;24.00;49.90;;;;;;6167662;28;81768;-56
2024/03/14 05:47:02;;;;;;;16.13;7.80;;;24.00;49.90;;;;;;6177516;28;80985;-57
2024/03/14 05:50:07;;;;;;;16.85;8.00;;;24.00;49.70;;;;;;6176363;28;80558;-57
2024/03/14 05:53:07;;;;;;;13.40;8.45;;;24.00;49.60;;;;;;6176575;28;83101;-58
2024/03/14 05:56:08;;;;;;;9.65;7.22;;;24.00;49.40;;;;;;6174415;28;83440;-58
2024/03/14 05:59:09;;;;;;;17.05;9.07;;;24.00;49.60;;;;;;6172446;28;82386;-56
2024/03/14 06:02:10;;;;;;;18.15;7.65;;;23.90;50.00;;;;;;6181931;28;80947;-59
2024/03/14 06:05:10;;;;;;;10.23;7.80;;;23.90;49.30;;;;;;6176909;28;80850;-60
2024/03/14 06:08:11;;;;;;;12.75;7.30;;;23.90;49.20;;;;;;6176358;28;80821;-56
2024/03/14 06:11:11;;;;;;;17.90;8.65;;;23.90;49.30;;;;;;6167609;28;87376;-57
2024/03/14 06:14:14;;;;;;;12.38;8.75;;;23.80;49.10;;;;;;6175739;28;81335;-56
2024/03/14 06:17:15;;;;;;;22.15;9.30;;;23.80;49.30;;;;;;6176750;28;80340;-57
2024/03/14 06:20:15;;;;;;;12.00;8.98;;;23.90;49.30;;;;;;6180530;28;80792;-57
2024/03/14 06:23:18;;;;;;;14.70;8.82;;;23.80;49.20;;;;;;6179371;28;81033;-55
2024/03/14 06:26:19;;;;;;;20.27;9.77;;;23.80;49.10;;;;;;6176222;28;80788;-58
2024/03/14 06:29:22;;;;;;;15.73;9.68;;;23.80;49.10;;;;;;6177344;28;80940;-56
2024/03/14 06:32:23;;;;;;;15.07;9.88;;;23.90;49.10;;;;;;6166446;28;82398;-54
2024/03/14 06:35:23;;;;;;;15.77;9.50;;;23.80;49.00;;;;;;6160431;28;80895;-52
2024/03/14 06:38:25;;;;;;;17.13;9.77;;;23.80;49.00;;;;;;6171355;28;81124;-59
2024/03/14 06:41:25;;;;;;;17.27;10.88;;;23.80;48.70;;;;;;6172800;28;80548;-61
2024/03/14 06:44:26;;;;;;;15.30;10.35;;;23.70;48.60;;;;;;6173146;28;82906;-58
2024/03/14 06:47:26;;;;;;;16.00;10.63;;;23.80;48.80;;;;;;6175062;28;83218;-58
2024/03/14 06:50:27;;;;;;;15.50;9.68;;;23.70;48.30;;;;;;6174902;28;83978;-59
2024/03/14 06:53:27;;;;;;;16.85;11.95;;;23.70;48.30;;;;;;6175628;28;82657;-59
2024/03/14 06:56:28;;;;;;;20.85;12.45;;;23.70;47.90;;;;;;6173772;28;83049;-60
2024/03/14 06:59:28;;;;;;;20.33;12.63;;;23.70;48.00;;;;;;6177287;28;83226;-59
2024/03/14 07:02:29;;;;;;;19.42;11.45;;;23.60;47.60;;;;;;6176367;28;83364;-59
2024/03/14 07:05:31;;;;;;;20.98;11.35;;;23.70;47.60;;;;;;6171659;28;82905;-59
2024/03/14 07:08:32;;;;;;;20.08;11.05;;;23.60;47.40;;;;;;6170148;28;84357;-58
2024/03/14 07:11:32;;;;;;;22.25;12.18;;;23.60;47.30;;;;;;6172535;28;82862;-58
2024/03/14 07:14:33;;;;;;;18.55;12.00;;;23.60;47.30;;;;;;6171815;28;83314;-56
2024/03/14 07:17:34;;;;;;;15.65;11.10;;;23.60;47.30;;;;;;6171054;28;82973;-56
2024/03/14 07:20:37;;;;;;;21.58;12.32;;;23.60;47.20;;;;;;6171282;28;82923;-55
2024/03/14 07:23:38;;;;;;;14.93;11.02;;;23.50;47.10;;;;;;6170381;28;83167;-54
2024/03/14 07:26:38;;;;;;;22.13;11.65;;;23.50;47.10;;;;;;6184120;28;82994;-54
2024/03/14 07:29:39;;;;;;;20.20;11.43;;;23.60;47.10;;;;;;6171510;28;84097;-55
2024/03/14 07:32:40;;;;;;;18.33;11.30;;;23.50;47.10;;;;;;6172136;28;83181;-56
2024/03/14 07:35:44;;;;;;;18.23;12.15;;;23.50;46.90;;;;;;6174127;28;84138;-53
2024/03/14 07:38:47;;;;;;;19.63;12.07;;;23.50;46.90;;;;;;6174325;28;83066;-53
2024/03/14 07:41:48;;;;;;;20.85;12.40;;;23.50;46.80;;;;;;6173237;28;82944;-53
2024/03/14 07:44:50;;;;;;;17.90;12.25;;;23.50;46.80;;;;;;6173559;28;83525;-54
2024/03/14 07:47:53;;;;;;;21.00;12.43;;;23.40;46.80;;;;;;6173977;28;83092;-54
2024/03/14 07:50:54;;;;;;;21.20;13.50;;;23.50;46.80;;;;;;6173672;28;83119;-54
2024/03/14 07:53:54;;;;;;;21.42;13.88;;;23.40;46.80;;;;;;6173922;28;83376;-57
2024/03/14 07:56:55;;;;;;;20.77;13.80;;;23.40;46.70;;;;;;6173182;28;83194;-55
2024/03/14 07:59:56;;;;;;;23.15;14.38;;;23.40;46.70;;;;;;6173957;28;83111;-56
2024/03/14 08:02:57;;;;;;;25.83;15.00;;;23.40;46.70;;;;;;6173108;28;84289;-58
2024/03/14 08:05:59;;;;;;;23.08;15.20;;;23.40;46.60;;;;;;6173711;28;83263;-57
2024/03/14 08:09:01;;;;;;;24.13;13.80;;;23.40;46.60;;;;;;6186521;28;83182;-53
2024/03/14 08:12:02;;;;;;;21.83;13.98;;;23.30;46.60;;;;;;6173276;28;82951;-53
2024/03/14 08:15:16;;;;;;;23.00;14.48;;;23.40;46.60;;;;;;6161105;28;85056;-57
2024/03/14 08:18:17;;;;;;;23.85;14.27;;;23.30;46.70;;;;;;6167371;28;83513;-58
2024/03/14 08:21:18;;;;;;;20.17;13.32;;;23.30;46.80;;;;;;6174713;28;83281;-56
2024/03/14 08:24:19;;;;;;;19.70;14.07;;;23.30;46.90;;;;;;6171931;28;83762;-57
2024/03/14 08:27:24;;;;;;;25.02;13.60;;;23.30;46.70;;;;;;6172998;28;83181;-60
2024/03/14 08:30:27;;;;;;;;;;;23.30;46.80;;;;;;6171646;28;84167;-56
2024/03/14 08:33:28;;;;;;;23.13;13.65;;;23.40;47.20;;;;;;6185096;28;83030;-55
2024/03/14 08:36:29;;;;;;;21.55;13.85;;;23.40;46.90;;;;;;6170847;28;89787;-56
2024/03/14 08:39:29;;;;;;;26.23;13.95;;;23.40;47.00;;;;;;6175688;28;82910;-57
2024/03/14 08:42:31;;;;;;;23.15;14.30;;;23.40;47.00;;;;;;6174912;28;82960;-55
2024/03/14 08:45:35;;;;;;;22.45;14.07;;;23.40;47.10;;;;;;6172577;28;83085;-48
2024/03/14 08:48:35;;;;;;;23.67;12.80;;;23.40;47.00;;;;;;6175190;28;83312;-53
2024/03/14 08:51:37;;;;;;;21.08;13.38;;;23.40;47.10;;;;;;6174514;28;82936;-49
2024/03/14 08:54:44;;;;;;;29.63;14.90;;;23.40;47.40;;;;;;6174909;28;83502;-54
2024/03/14 08:57:45;;;;;;;33.05;15.68;;;23.50;47.40;;;;;;6176474;28;83858;-56
2024/03/14 09:00:45;;;;;;;24.67;13.98;;;23.50;47.50;;;;;;6175654;28;85980;-58
2024/03/14 09:03:46;;;;;;;44.92;14.13;;;23.50;47.70;;;;;;6177612;28;85448;-59
2024/03/14 09:06:46;;;;;;;30.48;14.40;;;23.60;48.00;;;;;;6179209;28;83822;-58
2024/03/14 09:09:48;;;;;;;33.35;14.63;;;23.50;47.90;;;;;;6178557;28;83520;-59
2024/03/14 09:12:48;;;;;;;26.55;14.10;;;23.60;47.80;;;;;;6175174;28;83166;-58
2024/03/14 09:15:50;;;;;;;23.38;13.05;;;23.60;47.70;;;;;;6176222;28;83241;-59
2024/03/14 09:18:51;;;;;;;22.55;13.23;;;23.70;48.00;;;;;;6174241;28;83135;-59
2024/03/14 09:21:51;;;;;;;23.63;14.25;;;23.70;48.00;;;;;;6178790;28;83253;-58
2024/03/14 09:24:52;;;;;;;22.48;13.15;;;23.70;48.10;;;;;;6178702;28;83309;-60
2024/03/14 09:27:53;;;;;;;34.00;13.45;;;23.80;48.20;;;;;;6173161;28;84242;-61
2024/03/14 09:30:57;;;;;;;23.00;11.82;;;23.70;48.20;;;;;;6177832;28;83164;-58
2024/03/14 09:33:58;;;;;;;22.52;12.00;;;23.80;48.40;;;;;;6178415;28;84434;-57
2024/03/14 09:37:00;;;;;;;21.73;13.02;;;23.80;48.10;;;;;;6177853;28;83932;-56
2024/03/14 09:40:01;;;;;;;32.55;12.15;;;23.80;48.20;;;;;;6176437;28;84331;-61
2024/03/14 09:43:02;;;;;;;20.05;11.38;;;23.80;48.00;;;;;;6174759;28;84315;-58
2024/03/14 09:46:02;;;;;;;17.90;11.07;;;23.80;48.20;;;;;;6171034;28;83105;-57
2024/03/14 09:49:03;;;;;;;27.63;11.05;;;23.80;47.90;;;;;;6185737;28;83859;-53
2024/03/14 09:52:05;;;;;;;27.05;10.95;;;23.80;47.90;;;;;;6173174;28;83454;-57
2024/03/14 09:55:06;;;;;;;24.90;12.57;;;23.80;47.80;;;;;;6174358;28;83079;-59
2024/03/14 09:58:08;;;;;;;20.30;12.25;;;23.80;47.80;;;;;;6173339;28;83886;-61
2024/03/14 10:01:09;;;;;;;27.98;12.70;;;23.80;47.70;;;;;;6177977;28;83562;-61
2024/03/14 10:04:10;;;;;;;30.60;12.60;;;23.80;47.60;;;;;;6177825;28;83081;-60
2024/03/14 10:07:11;;;;;;;19.75;11.88;;;23.80;47.60;;;;;;6176443;28;82741;-59
2024/03/14 10:10:14;;;;;;;21.50;12.95;;;23.80;47.60;;;;;;6175937;28;83217;-60
2024/03/14 10:13:15;;;;;;;21.85;12.98;;;23.90;47.70;;;;;;6173944;28;83392;-59
2024/03/14 10:16:15;;;;;;;23.23;13.40;;;23.90;47.60;;;;;;6178450;28;82928;-54
2024/03/14 10:19:16;;;;;;;27.33;13.23;;;23.90;47.50;;;;;;6176166;28;83322;-57
2024/03/14 10:22:17;;;;;;;22.60;14.13;;;23.90;47.50;;;;;;6176373;28;83459;-54
2024/03/14 10:25:23;;;;;;;31.63;13.60;;;23.90;47.50;;;;;;6175867;28;82996;-58
2024/03/14 10:28:28;;;;;;;;;;;23.90;47.40;;;;;;6169203;28;84456;-57
2024/03/14 10:31:29;;;;;;;25.58;13.60;;;23.90;47.20;;;;;;6177285;28;82977;-55
2024/03/14 10:34:29;;;;;;;20.13;12.65;;;24.00;47.30;;;;;;6176790;28;82994;-59
2024/03/14 10:37:30;;;;;;;22.50;13.02;;;24.00;47.30;;;;;;6176355;28;82824;-57
2024/03/14 10:40:31;;;;;;;20.80;13.20;;;24.00;47.30;;;;;;6173222;28;83412;-59
2024/03/14 10:43:32;;;;;;;21.52;12.40;;;24.00;47.30;;;;;;6176091;28;82978;-59
2024/03/14 10:46:32;;;;;;;19.52;12.38;;;24.00;47.40;;;;;;6176583;28;82986;-59
2024/03/14 10:49:34;;;;;;;17.98;11.63;;;24.00;47.50;;;;;;6174342;28;83809;-58
2024/03/14 10:52:34;;;;;;;20.63;12.20;;;24.00;47.40;;;;;;6174809;28;88922;-59
2024/03/14 10:55:35;;;;;;;22.65;12.85;;;24.00;47.50;;;;;;6171689;28;83196;-59
2024/03/14 10:58:36;;;;;;;20.45;13.35;;;24.00;47.60;;;;;;6175709;28;83590;-59
2024/03/14 11:01:36;;;;;;;21.02;12.00;;;24.00;48.10;;;;;;6176216;28;85018;-61
2024/03/14 11:04:39;;;;;;;18.77;12.63;;;24.00;48.70;;;;;;6185881;28;85509;-61
2024/03/14 11:07:40;;;;;;;20.75;12.48;;;24.00;49.80;;;;;;6177135;28;84971;-61
2024/03/14 11:10:40;;;;;;;26.30;14.23;;;23.90;50.60;;;;;;6185661;28;84155;-61
2024/03/14 11:13:44;;;;;;;19.50;12.35;;;23.90;51.40;;;;;;6173424;28;82865;-58
2024/03/14 11:16:44;;;;;;;17.88;12.30;;;23.90;52.20;;;;;;6173952;28;87822;-58
2024/03/14 11:19:45;;;;;;;18.88;11.93;;;23.90;52.80;;;;;;6175044;28;83151;-55
2024/03/14 11:22:47;;;;;;;16.13;11.18;;;23.90;53.00;;;;;;6170114;28;82866;-56
2024/03/14 11:25:47;;;;;;;17.05;11.88;;;23.90;53.20;;;;;;6173710;28;83058;-54
2024/03/14 11:28:51;;;;;;;19.67;11.85;;;23.80;53.50;;;;;;6173991;28;86884;-58
2024/03/14 11:31:51;;;;;;;18.85;12.18;;;23.80;53.60;;;;;;6175625;28;83737;-60
2024/03/14 11:34:53;;;;;;;18.92;12.77;;;23.80;53.90;;;;;;6174435;28;83754;-60
2024/03/14 11:37:53;;;;;;;18.50;12.45;;;23.80;54.10;;;;;;6176910;28;84865;-60
2024/03/14 11:40:54;;;;;;;21.10;12.77;;;23.80;54.40;;;;;;6172694;28;83545;-60
2024/03/14 11:43:56;;;;;;;19.67;11.63;;;23.80;54.50;;;;;;6174064;28;83241;-59
2024/03/14 11:46:57;;;;;;;15.35;10.80;;;23.80;54.80;;;;;;6172432;28;83361;-60
2024/03/14 11:49:58;;;;;;;20.10;11.90;;;23.80;55.00;;;;;;6175095;28;84009;-55
2024/03/14 11:52:59;;;;;;;20.20;11.65;;;23.80;55.10;;;;;;6170001;28;83127;-55
2024/03/14 11:56:02;;;;;;;17.55;11.70;;;23.80;55.10;;;;;;6174904;28;83215;-55
2024/03/14 11:59:02;;;;;;;17.88;11.15;;;23.80;55.40;;;;;;6175479;28;83615;-55
2024/03/14 12:02:03;;;;;;;18.55;11.57;;;23.80;55.50;;;;;;6175633;28;83032;-57
2024/03/14 12:05:05;;;;;;;15.35;10.45;;;23.80;55.70;;;;;;6171180;28;88097;-58
2024/03/14 12:08:06;;;;;;;18.10;11.48;;;23.70;55.80;;;;;;6171859;28;84672;-59
2024/03/14 12:11:06;;;;;;;17.27;10.98;;;23.70;55.90;;;;;;6175293;28;84213;-55
2024/03/14 12:14:07;;;;;;;15.10;9.70;;;23.80;56.00;;;;;;6175109;28;83226;-57
2024/03/14 12:17:08;;;;;;;16.05;10.30;;;23.70;56.60;;;;;;6175220;28;82947;-58
2024/03/14 12:20:10;;;;;;;13.27;8.63;;;23.70;56.50;;;;;;6170593;28;82917;-58
2024/03/14 12:23:11;;;;;;;14.63;9.20;;;23.70;56.80;;;;;;6173791;28;82993;-59
2024/03/14 12:26:12;;;;;;;12.65;9.02;;;23.70;56.90;;;;;;6178549;28;82353;-60
2024/03/14 12:29:12;;;;;;;13.35;8.93;;;23.70;56.80;;;;;;6178376;28;80457;-63
2024/03/14 12:32:14;;;;;;;12.73;7.82;;;23.70;57.30;;;;;;6176329;28;80434;-59
2024/03/14 12:35:15;;;;;;;12.35;8.15;;;23.70;57.20;;;;;;6181830;28;81012;-62
2024/03/14 12:38:17;;;;;;;12.85;8.25;;;23.70;57.50;;;;;;6182367;28;81655;-62
2024/03/14 12:41:18;;;;;;;12.98;8.77;;;23.60;57.70;;;;;;6179073;28;80614;-58
2024/03/14 12:44:19;;;;;;;14.02;9.82;;;23.70;58.80;;;;;;6171113;28;80988;-65
2024/03/14 12:47:19;;;;;;;14.15;8.93;;;23.70;59.10;;;;;;6177311;28;80727;-64
2024/03/14 12:50:20;;;;;;;13.38;8.45;;;23.60;59.80;;;;;;6179071;28;80914;-65
2024/03/14 12:53:22;;;;;;;14.35;9.20;;;23.60;61.20;;;;;;6181287;28;81764;-64
2024/03/14 12:56:24;;;;;;;12.23;8.60;;;23.60;61.00;;;;;;6166689;28;82952;-63
2024/03/14 12:59:24;;;;;;;14.18;8.90;;;23.60;61.90;;;;;;6171459;28;80618;-62
2024/03/14 13:02:25;;;;;;;12.88;8.57;;;23.60;61.40;;;;;;6180403;28;81150;-60
2024/03/14 13:05:26;;;;;;;11.77;8.30;;;23.60;60.80;;;;;;6170624;28;80581;-60
2024/03/14 13:08:26;;;;;;;12.70;8.13;;;23.60;60.90;;;;;;6177441;28;83913;-59
2024/03/14 13:11:27;;;;;;;17.38;11.38;;;23.60;61.20;;;;;;6172231;28;80654;-59
2024/03/14 13:14:27;;;;;;;17.90;11.88;;;23.40;56.20;;;;;;6171762;28;84779;-58
2024/03/14 13:17:28;;;;;;;21.52;11.60;;;23.30;53.00;;;;;;6170012;28;83836;-59
2024/03/14 13:20:31;;;;;;;18.27;12.07;;;23.10;51.60;;;;;;6169274;28;83847;-58
2024/03/14 13:23:31;;;;;;;22.08;13.25;;;23.00;50.90;;;;;;6168806;28;84515;-57
2024/03/14 13:26:32;;;;;;;20.15;12.60;;;22.90;50.50;;;;;;6171927;28;83587;-58
2024/03/14 13:29:33;;;;;;;21.60;13.50;;;22.80;50.10;;;;;;6171424;28;83803;-58
2024/03/14 13:32:37;;;;;;;25.00;13.38;;;22.80;49.40;;;;;;6155278;28;85309;-56
2024/03/14 13:35:39;;;;;;;23.00;12.45;;;22.70;49.70;;;;;;6171199;28;82963;-55
2024/03/14 13:38:40;;;;;;;20.60;12.98;;;22.50;49.30;;;;;;6152689;28;89236;-62
2024/03/14 13:41:42;;;;;;;23.67;11.88;;;22.60;51.40;;;;;;6164741;28;83270;-64
2024/03/14 13:44:43;;;;;;;20.83;10.52;;;22.70;52.60;;;;;;6167610;28;84962;-67
2024/03/14 13:47:45;;;;;;;16.17;10.18;;;22.80;53.20;;;;;;6181824;28;83401;-66
2024/03/14 13:50:46;;;;;;;16.30;9.70;;;22.90;53.60;;;;;;6186525;28;83005;-65
2024/03/14 13:53:50;;;;;;;16.05;10.93;;;23.00;55.10;;;;;;6185442;28;86123;-65
2024/03/14 13:56:53;;;;;;;14.57;9.95;;;23.00;55.20;;;;;;6183356;28;83249;-58
2024/03/14 14:00:00;;;;;;;18.60;9.65;;;23.10;55.80;;;;;;6180544;28;81920;-59
2024/03/14 14:03:01;;;;;;;18.60;9.70;;;23.20;56.40;;;;;;6176149;28;80907;-60
2024/03/14 14:06:03;;;;;;;15.52;8.98;;;23.20;58.00;;;;;;6177663;28;81716;-56
2024/03/14 14:09:07;;;;;;;16.33;9.20;;;23.30;58.20;;;;;;6177578;28;81370;-58
2024/03/14 14:12:07;;;;;;;27.55;10.02;;;23.30;59.30;;;;;;6177946;28;80358;-53
2024/03/14 14:15:10;;;;;;;19.92;9.55;;;23.40;59.70;;;;;;6175904;28;84925;-59
2024/03/14 14:18:11;;;;;;;34.08;12.43;;;23.40;59.80;;;;;;6177996;28;82932;-59
2024/03/14 14:21:12;;;;;;;24.85;10.73;;;23.40;59.90;;;;;;6174830;28;84570;-60
2024/03/14 14:24:12;;;;;;;34.80;13.75;;;23.50;60.70;;;;;;6175119;28;82823;-59
2024/03/14 14:27:13;;;;;;;33.55;13.93;;;23.50;61.00;;;;;;6176770;28;83403;-53
2024/03/14 14:30:19;;;;;;;56.30;17.67;;;23.50;61.70;;;;;;6184826;28;83752;-59
2024/03/14 14:33:20;;;;;;;;;;;23.50;61.50;;;;;;6176319;28;83935;-53
2024/03/14 14:36:20;;;;;;;48.92;21.30;;;23.50;61.50;;;;;;6184917;28;83493;-56
2024/03/14 14:39:21;;;;;;;36.30;16.08;;;23.50;61.10;;;;;;6176286;28;83018;-57
2024/03/14 14:42:21;;;;;;;40.72;15.20;;;23.60;61.40;;;;;;6174573;28;84869;-56
2024/03/14 14:45:22;;;;;;;40.20;15.38;;;23.60;61.10;;;;;;6175485;28;82956;-60
2024/03/14 14:48:23;;;;;;;40.90;14.98;;;23.60;61.40;;;;;;6174926;28;83150;-59
2024/03/14 14:51:23;;;;;;;37.10;14.50;;;23.60;61.80;;;;;;6168700;28;83183;-58
2024/03/14 14:54:24;;;;;;;32.03;14.48;;;23.60;61.80;;;;;;6170824;28;86290;-58
2024/03/14 14:57:24;;;;;;;32.50;14.98;;;23.60;62.10;;;;;;6174557;28;83223;-56
2024/03/14 15:00:25;;;;;;;28.65;13.38;;;23.60;61.90;;;;;;6172371;28;85914;-57
2024/03/14 15:03:26;;;;;;;31.83;13.02;;;23.60;61.60;;;;;;6171463;28;83491;-59
2024/03/14 15:06:27;;;;;;;29.05;13.05;;;23.60;61.70;;;;;;6174451;28;86412;-58
2024/03/14 15:09:27;;;;;;;23.70;10.90;;;23.70;61.90;;;;;;6175013;28;83283;-59
2024/03/14 15:12:29;;;;;;;28.02;11.90;;;23.70;61.50;;;;;;6172518;28;83203;-57
2024/03/14 15:15:30;;;;;;;22.65;10.68;;;23.70;61.90;;;;;;6171698;28;83359;-58
2024/03/14 15:18:31;;;;;;;22.30;9.13;;;23.70;61.70;;;;;;6171748;28;83020;-61
2024/03/14 15:21:32;;;;;;;18.30;8.52;;;23.70;61.50;;;;;;6176172;28;83066;-56
2024/03/14 15:24:33;;;;;;;17.85;8.13;;;23.70;61.10;;;;;;6176380;28;80446;-58
2024/03/14 15:27:36;;;;;;;14.15;7.80;;;23.70;60.70;;;;;;6176272;28;80765;-59